Time;durP1;ratioP1;P1;durP2;ratioP2;P2;SDS_P1;SDS_P2;PMS_P1;PMS_P2;Temp;Humidity;BMP_temperature;BMP_pressure;BME280_temperature;BME280_humidity;BME280_pressure;Samples;Min_cycle;Max_cycle;Signal;HPM_P1;HPM_P2
2023/04/03 00:01:20;;;;;;;1.70;1.38;;;22.90;46.40;;;;;;6152005;28;81184;-63
2023/04/03 00:04:20;;;;;;;2.08;1.30;;;22.80;46.30;;;;;;6152642;28;81604;-63
2023/04/03 00:07:21;;;;;;;1.60;1.40;;;22.80;46.30;;;;;;6151789;28;82349;-63
2023/04/03 00:10:21;;;;;;;1.35;1.25;;;22.80;46.10;;;;;;6151191;28;80606;-63
2023/04/03 00:13:22;;;;;;;1.15;1.10;;;22.90;46.10;;;;;;6152060;28;81756;-63
2023/04/03 00:16:22;;;;;;;1.30;1.20;;;22.90;46.20;;;;;;6151300;28;80570;-62
2023/04/03 00:19:23;;;;;;;1.63;1.17;;;22.90;45.90;;;;;;6147891;28;81005;-62
2023/04/03 00:22:23;;;;;;;2.38;1.50;;;22.90;46.00;;;;;;6145394;28;81308;-61
2023/04/03 00:25:24;;;;;;;1.30;1.20;;;22.80;45.80;;;;;;6142801;28;82381;-62
2023/04/03 00:28:25;;;;;;;3.20;1.45;;;22.80;45.90;;;;;;6119227;28;80664;-61
2023/04/03 00:31:25;;;;;;;1.30;1.20;;;22.80;45.90;;;;;;6154161;28;81398;-61
2023/04/03 00:34:26;;;;;;;1.52;1.20;;;22.80;45.80;;;;;;6154700;28;81658;-61
2023/04/03 00:37:27;;;;;;;1.25;1.08;;;22.80;46.00;;;;;;6138799;28;81919;-60
2023/04/03 00:40:27;;;;;;;1.30;1.20;;;22.80;45.90;;;;;;6155970;28;80449;-64
2023/04/03 00:43:28;;;;;;;1.33;1.20;;;22.70;45.70;;;;;;6154242;28;80455;-65
2023/04/03 00:46:28;;;;;;;1.75;1.20;;;22.80;45.70;;;;;;6152121;28;80862;-65
2023/04/03 00:49:29;;;;;;;1.58;1.20;;;22.80;45.80;;;;;;6152789;28;80213;-65
2023/04/03 00:52:29;;;;;;;1.63;1.35;;;22.80;45.70;;;;;;6134941;28;81609;-64
2023/04/03 00:55:30;;;;;;;1.52;1.23;;;22.70;45.60;;;;;;6152617;28;80902;-63
2023/04/03 00:58:30;;;;;;;1.65;1.45;;;22.70;45.70;;;;;;6132763;28;81795;-60
2023/04/03 01:01:31;;;;;;;1.20;1.10;;;22.70;45.50;;;;;;6154153;28;81037;-60
2023/04/03 01:04:32;;;;;;;1.30;1.20;;;22.70;45.50;;;;;;6138374;28;83452;-60
2023/04/03 01:07:33;;;;;;;1.48;1.20;;;22.70;45.60;;;;;;6154658;28;81269;-62
2023/04/03 01:10:34;;;;;;;1.52;1.20;;;22.70;45.60;;;;;;6155706;28;80548;-60
2023/04/03 01:13:35;;;;;;;1.45;1.35;;;22.70;45.90;;;;;;6137008;28;82998;-61
2023/04/03 01:16:36;;;;;;;1.70;1.38;;;22.70;46.10;;;;;;6140800;28;83521;-66
2023/04/03 01:19:36;;;;;;;1.20;1.10;;;22.70;45.60;;;;;;6133496;28;82150;-66
2023/04/03 01:22:37;;;;;;;1.48;1.10;;;22.70;45.70;;;;;;6143882;28;80453;-66
2023/04/03 01:25:37;;;;;;;1.98;1.15;;;22.70;45.80;;;;;;6155339;28;80406;-65
2023/04/03 01:28:38;;;;;;;1.98;1.50;;;22.70;45.60;;;;;;6136526;28;81566;-65
2023/04/03 01:31:38;;;;;;;1.30;1.20;;;22.70;45.30;;;;;;6154610;28;80358;-66
2023/04/03 01:34:39;;;;;;;1.52;1.20;;;22.70;45.60;;;;;;6153826;28;80876;-63
2023/04/03 01:37:40;;;;;;;1.92;1.40;;;22.70;45.60;;;;;;6136159;28;83484;-63
2023/04/03 01:40:41;;;;;;;1.35;1.25;;;22.70;45.50;;;;;;6153295;28;80358;-63
2023/04/03 01:43:41;;;;;;;1.90;1.30;;;22.70;45.30;;;;;;6136481;28;81582;-64
2023/04/03 01:46:42;;;;;;;1.95;1.45;;;22.70;45.40;;;;;;6136875;28;81796;-63
2023/04/03 01:49:43;;;;;;;1.63;1.10;;;22.70;45.40;;;;;;6137022;28;82196;-63
2023/04/03 01:52:44;;;;;;;1.95;1.38;;;22.70;45.20;;;;;;6135750;28;83568;-60
2023/04/03 01:55:45;;;;;;;1.40;1.30;;;22.70;45.30;;;;;;6137138;28;83269;-61
2023/04/03 01:58:45;;;;;;;2.38;1.30;;;22.70;45.10;;;;;;6126135;28;83432;-61
2023/04/03 02:01:46;;;;;;;1.58;1.20;;;22.70;45.00;;;;;;6142957;28;83574;-61
2023/04/03 02:04:47;;;;;;;1.10;1.00;;;22.70;44.80;;;;;;6150108;28;81496;-61
2023/04/03 02:07:47;;;;;;;1.52;1.10;;;22.70;44.80;;;;;;6136485;28;83671;-61
2023/04/03 02:10:48;;;;;;;1.27;1.10;;;22.70;44.70;;;;;;6154475;28;80198;-62
2023/04/03 02:13:48;;;;;;;1.27;1.17;;;22.70;44.90;;;;;;6123256;28;83578;-62
2023/04/03 02:16:49;;;;;;;1.20;1.10;;;22.70;44.60;;;;;;6154561;28;80668;-62
2023/04/03 02:19:50;;;;;;;1.70;1.48;;;22.70;44.90;;;;;;6143773;28;81282;-62
2023/04/03 02:22:51;;;;;;;1.60;1.10;;;22.70;45.10;;;;;;6132255;28;83204;-61
2023/04/03 02:25:52;;;;;;;1.00;0.90;;;22.60;44.60;;;;;;6136054;28;83639;-62
2023/04/03 02:28:52;;;;;;;2.15;1.38;;;22.60;44.70;;;;;;6153607;28;81200;-65
2023/04/03 02:31:53;;;;;;;2.47;1.48;;;22.60;44.60;;;;;;6123549;28;84519;-69
2023/04/03 02:34:55;;;;;;;1.52;1.15;;;22.70;44.50;;;;;;6137160;28;82664;-66
2023/04/03 02:37:56;;;;;;;1.38;1.20;;;22.70;44.50;;;;;;6136022;28;82509;-66
2023/04/03 02:40:57;;;;;;;1.77;1.05;;;22.60;44.60;;;;;;6122474;28;82192;-67
2023/04/03 02:43:59;;;;;;;1.83;1.23;;;22.70;44.80;;;;;;6152062;28;81661;-64
2023/04/03 02:47:00;;;;;;;1.33;1.20;;;22.60;44.60;;;;;;6136206;28;81935;-61
2023/04/03 02:50:00;;;;;;;1.55;1.35;;;22.60;44.60;;;;;;6154472;28;80917;-63
2023/04/03 02:53:01;;;;;;;1.50;1.20;;;22.60;44.60;;;;;;6134571;28;81899;-65
2023/04/03 02:56:02;;;;;;;2.03;1.23;;;22.60;44.70;;;;;;6121876;28;82964;-63
2023/04/03 02:59:02;;;;;;;1.15;1.05;;;22.60;44.60;;;;;;6122816;28;83090;-63
2023/04/03 03:02:03;;;;;;;2.17;1.17;;;22.70;44.60;;;;;;6127912;28;82247;-63
2023/04/03 03:05:04;;;;;;;2.15;1.27;;;22.70;44.60;;;;;;6127272;28;81786;-64
2023/04/03 03:08:04;;;;;;;1.83;1.42;;;22.60;44.60;;;;;;6139987;28;82069;-63
2023/04/03 03:11:05;;;;;;;1.40;1.10;;;22.60;44.60;;;;;;6120177;28;83739;-62
2023/04/03 03:14:07;;;;;;;1.02;0.93;;;22.60;44.80;;;;;;6138585;28;83693;-62
2023/04/03 03:17:07;;;;;;;1.25;1.05;;;22.70;44.30;;;;;;6152586;28;80924;-62
2023/04/03 03:20:08;;;;;;;1.90;1.10;;;22.70;43.60;;;;;;6143436;28;80378;-63
2023/04/03 03:23:08;;;;;;;1.20;1.10;;;22.80;44.00;;;;;;6147581;28;82732;-63
2023/04/03 03:26:09;;;;;;;1.50;1.40;;;22.80;43.50;;;;;;6152562;28;80585;-63
2023/04/03 03:29:09;;;;;;;1.40;1.20;;;22.90;43.00;;;;;;6132893;28;82990;-64
2023/04/03 03:32:11;;;;;;;2.22;1.42;;;22.90;42.80;;;;;;6135352;28;82941;-64
2023/04/03 03:35:11;;;;;;;0.93;0.90;;;23.00;42.60;;;;;;6153159;28;81577;-65
2023/04/03 03:38:12;;;;;;;1.50;1.20;;;23.00;42.50;;;;;;6153034;28;79989;-62
2023/04/03 03:41:12;;;;;;;1.10;1.00;;;23.00;42.50;;;;;;6151515;28;83869;-63
2023/04/03 03:44:15;;;;;;;1.60;1.10;;;23.10;42.30;;;;;;6124021;28;81527;-62
2023/04/03 03:47:16;;;;;;;1.92;1.08;;;23.10;42.20;;;;;;6134630;28;83230;-62
2023/04/03 03:50:17;;;;;;;2.20;1.10;;;23.10;42.00;;;;;;6151105;28;80575;-63
2023/04/03 03:53:17;;;;;;;2.63;1.20;;;23.20;41.80;;;;;;6129504;28;80557;-62
2023/04/03 03:56:18;;;;;;;3.53;1.58;;;23.20;42.00;;;;;;6133414;28;83678;-64
2023/04/03 03:59:20;;;;;;;1.55;1.20;;;23.20;41.90;;;;;;6122411;28;84156;-60
2023/04/03 04:02:21;;;;;;;1.27;1.17;;;23.20;42.00;;;;;;6133071;28;82369;-63
2023/04/03 04:05:22;;;;;;;1.27;1.02;;;23.20;41.80;;;;;;6150391;28;81055;-59
2023/04/03 04:08:23;;;;;;;1.20;1.05;;;23.20;41.80;;;;;;6151766;28;81954;-60
2023/04/03 04:11:24;;;;;;;1.40;1.30;;;23.20;41.80;;;;;;6140265;28;80424;-57
2023/04/03 04:14:26;;;;;;;1.08;0.95;;;23.20;41.70;;;;;;6099717;28;83292;-59
2023/04/03 04:17:28;;;;;;;1.35;1.02;;;23.20;41.60;;;;;;6137958;28;81118;-61
2023/04/03 04:20:29;;;;;;;0.95;0.80;;;23.20;41.40;;;;;;6126238;28;81635;-66
2023/04/03 04:23:30;;;;;;;1.75;1.23;;;23.20;41.40;;;;;;6149622;28;86528;-62
2023/04/03 04:26:32;;;;;;;2.97;1.20;;;23.20;41.40;;;;;;6134796;28;81400;-62
2023/04/03 04:29:35;;;;;;;1.35;1.20;;;23.20;41.00;;;;;;6151060;28;81045;-57
2023/04/03 04:32:37;;;;;;;2.00;1.55;;;23.30;41.50;;;;;;6133303;28;83279;-62
2023/04/03 04:35:37;;;;;;;4.10;1.30;;;23.30;41.30;;;;;;6128113;28;82175;-55
2023/04/03 04:38:38;;;;;;;1.88;1.20;;;23.30;41.40;;;;;;6138427;28;81617;-62
2023/04/03 04:41:39;;;;;;;2.85;1.20;;;23.30;41.80;;;;;;6127896;28;83472;-62
2023/04/03 04:44:40;;;;;;;1.75;1.20;;;23.30;41.80;;;;;;6120775;28;83922;-64
2023/04/03 04:47:41;;;;;;;2.28;1.05;;;23.30;41.60;;;;;;6116885;28;83645;-60
2023/04/03 04:50:43;;;;;;;1.33;1.23;;;23.30;41.60;;;;;;6113640;28;83503;-60
2023/04/03 04:53:43;;;;;;;2.45;1.25;;;23.30;41.60;;;;;;6118647;28;81440;-61
2023/04/03 04:56:47;;;;;;;1.75;1.10;;;23.30;41.20;;;;;;6131151;28;83477;-65
2023/04/03 04:59:48;;;;;;;3.50;1.33;;;23.30;41.20;;;;;;6130706;28;82275;-62
2023/04/03 05:02:49;;;;;;;5.22;1.10;;;23.40;41.20;;;;;;6148258;28;81739;-61
2023/04/03 05:05:49;;;;;;;4.65;1.40;;;23.40;41.10;;;;;;6129447;28;83637;-60
2023/04/03 05:08:50;;;;;;;2.30;1.50;;;23.30;41.60;;;;;;6131658;28;83012;-63
2023/04/03 05:11:51;;;;;;;1.60;1.17;;;23.30;40.90;;;;;;6116286;28;84249;-63
2023/04/03 05:14:55;;;;;;;3.00;1.45;;;23.30;40.70;;;;;;6128271;28;82957;-62
2023/04/03 05:17:56;;;;;;;5.50;1.65;;;23.30;40.40;;;;;;6132514;28;83599;-63
2023/04/03 05:20:57;;;;;;;2.83;1.40;;;23.30;40.60;;;;;;6115113;28;83907;-66
2023/04/03 05:24:02;;;;;;;2.53;1.25;;;23.30;40.40;;;;;;6112614;28;82299;-64
2023/04/03 05:27:04;;;;;;;5.53;1.38;;;23.20;40.40;;;;;;6138355;28;81291;-64
2023/04/03 05:30:07;;;;;;;1.52;1.40;;;23.20;40.40;;;;;;6134965;28;83043;-62
2023/04/03 05:33:09;;;;;;;2.17;1.40;;;23.20;40.20;;;;;;6143974;28;83800;-66
2023/04/03 05:36:16;;;;;;;3.35;1.40;;;23.20;40.20;;;;;;6151995;28;81666;-66
2023/04/03 05:39:20;;;;;;;6.10;2.53;;;23.20;39.90;;;;;;6130814;28;83762;-64
2023/04/03 05:42:22;;;;;;;53.78;17.90;;;23.10;40.20;;;;;;6108027;28;84165;-69
2023/04/03 05:45:22;;;;;;;75.68;17.42;;;23.10;40.40;;;;;;6116623;28;82888;-66
2023/04/03 05:48:23;;;;;;;78.97;21.58;;;22.90;38.80;;;;;;6143169;28;83662;-64
2023/04/03 05:51:25;;;;;;;64.38;18.77;;;22.70;38.70;;;;;;6117814;28;88492;-61
2023/04/03 05:54:27;;;;;;;46.30;15.18;;;22.60;38.60;;;;;;6107855;28;85737;-66
2023/04/03 05:57:35;;;;;;;32.88;12.10;;;22.50;38.20;;;;;;6133954;28;84717;-67
2023/04/03 06:00:36;;;;;;;40.75;11.48;;;22.40;37.90;;;;;;6100107;28;86631;-66
2023/04/03 06:03:39;;;;;;;32.80;10.02;;;22.20;37.90;;;;;;6066257;28;87130;-64
2023/04/03 06:06:41;;;;;;;18.55;7.53;;;22.10;37.70;;;;;;6098058;28;86062;-64
2023/04/03 06:09:41;;;;;;;10.02;4.28;;;22.10;38.20;;;;;;6095520;28;85291;-70
2023/04/03 06:12:42;;;;;;;10.55;4.20;;;22.00;37.00;;;;;;6103665;28;83654;-63
2023/04/03 06:15:43;;;;;;;9.48;4.13;;;21.80;36.20;;;;;;6126317;28;83375;-65
2023/04/03 06:18:43;;;;;;;9.35;3.47;;;21.80;36.50;;;;;;6150461;28;80402;-70
2023/04/03 06:21:45;;;;;;;6.18;3.03;;;21.70;36.20;;;;;;6124599;28;81741;-66
2023/04/03 06:24:46;;;;;;;4.13;2.83;;;21.70;36.90;;;;;;6149501;28;82830;-68
2023/04/03 06:27:47;;;;;;;5.10;2.67;;;21.80;37.70;;;;;;6139346;28;82269;-57
2023/04/03 06:30:47;;;;;;;6.80;2.42;;;21.80;37.70;;;;;;6036062;28;86904;-56
2023/04/03 06:33:48;;;;;;;4.55;2.53;;;21.90;37.60;;;;;;6133977;28;80207;-57
2023/04/03 06:36:51;;;;;;;7.63;3.05;;;22.00;37.30;;;;;;6134582;28;87244;-54
2023/04/03 06:39:51;;;;;;;4.35;2.03;;;22.00;37.00;;;;;;6140813;28;80485;-56
2023/04/03 06:42:52;;;;;;;3.85;2.50;;;22.00;37.00;;;;;;6129940;28;81340;-57
2023/04/03 06:45:54;;;;;;;3.75;2.28;;;22.10;37.00;;;;;;6134058;28;83183;-54
2023/04/03 06:48:54;;;;;;;4.47;2.30;;;22.10;36.70;;;;;;6136175;28;81785;-56
2023/04/03 06:51:56;;;;;;;3.35;2.17;;;22.10;36.70;;;;;;6134160;28;80498;-52
2023/04/03 06:54:59;;;;;;;4.35;2.20;;;22.10;36.80;;;;;;6138107;28;82258;-52
2023/04/03 06:58:00;;;;;;;4.72;2.67;;;22.10;37.00;;;;;;6135857;28;82564;-55
2023/04/03 07:01:00;;;;;;;2.75;1.92;;;22.20;36.70;;;;;;6092187;28;81212;-56
2023/04/03 07:04:01;;;;;;;2.42;1.80;;;22.20;36.30;;;;;;6109456;28;84443;-71
2023/04/03 07:07:02;;;;;;;3.47;1.90;;;22.20;36.80;;;;;;6147702;28;81554;-66
2023/04/03 07:10:02;;;;;;;4.30;2.08;;;22.20;36.40;;;;;;6148893;28;80381;-69
2023/04/03 07:13:03;;;;;;;4.78;2.00;;;22.20;36.60;;;;;;6141376;28;85729;-66
2023/04/03 07:16:04;;;;;;;3.53;1.92;;;22.30;36.30;;;;;;6148282;28;82884;-68
2023/04/03 07:19:05;;;;;;;3.70;2.08;;;22.30;36.30;;;;;;6147444;28;82292;-59
2023/04/03 07:22:06;;;;;;;2.90;1.95;;;22.40;36.10;;;;;;6144760;28;81016;-67
2023/04/03 07:25:07;;;;;;;4.57;1.77;;;22.50;35.80;;;;;;6151841;28;81053;-63
2023/04/03 07:28:08;;;;;;;3.15;2.03;;;22.60;35.60;;;;;;6125505;28;85536;-61
2023/04/03 07:31:10;;;;;;;7.43;3.03;;;22.70;35.10;;;;;;6121558;28;81921;-62
2023/04/03 07:34:11;;;;;;;6.00;2.67;;;22.70;34.80;;;;;;6123331;28;86170;-62
2023/04/03 07:37:12;;;;;;;6.25;2.53;;;22.80;34.50;;;;;;6126732;28;82720;-63
2023/04/03 07:40:13;;;;;;;6.53;2.47;;;22.90;34.40;;;;;;6119064;28;81465;-63
2023/04/03 07:43:14;;;;;;;4.20;2.25;;;23.00;34.30;;;;;;6108564;28;81121;-69
2023/04/03 07:46:14;;;;;;;4.43;2.55;;;23.00;34.10;;;;;;6124528;28;80682;-68
2023/04/03 07:49:15;;;;;;;3.72;2.47;;;23.10;34.10;;;;;;6122268;28;80872;-71
2023/04/03 07:52:16;;;;;;;3.85;2.15;;;23.10;33.90;;;;;;6120966;28;81376;-71
2023/04/03 07:55:16;;;;;;;3.65;2.08;;;23.20;33.80;;;;;;6124226;28;80539;-72
2023/04/03 07:58:17;;;;;;;4.65;2.22;;;23.20;33.60;;;;;;6125260;28;83018;-69
2023/04/03 08:01:17;;;;;;;5.07;2.35;;;23.20;33.40;;;;;;6110110;28;85246;-57
2023/04/03 08:04:18;;;;;;;11.50;2.90;;;23.30;33.30;;;;;;6121750;28;80388;-56
2023/04/03 08:07:18;;;;;;;6.82;2.40;;;23.30;33.20;;;;;;6122587;28;80635;-60
2023/04/03 08:10:19;;;;;;;4.93;2.53;;;23.30;33.20;;;;;;6121158;28;80269;-56
2023/04/03 08:13:19;;;;;;;4.70;2.08;;;23.30;33.20;;;;;;6123512;28;80389;-60
2023/04/03 08:16:20;;;;;;;4.88;2.40;;;23.30;33.40;;;;;;6120764;28;81645;-59
2023/04/03 08:19:21;;;;;;;4.88;2.10;;;23.30;33.60;;;;;;6123023;28;80376;-57
2023/04/03 08:22:21;;;;;;;3.20;1.90;;;23.30;33.70;;;;;;6123507;28;81781;-56
2023/04/03 08:25:22;;;;;;;8.05;2.00;;;23.30;33.90;;;;;;6121933;28;81529;-57
2023/04/03 08:28:22;;;;;;;3.40;2.00;;;23.30;33.90;;;;;;6121004;28;81259;-58
2023/04/03 08:31:23;;;;;;;3.20;1.85;;;23.40;33.90;;;;;;6133556;28;85586;-56
2023/04/03 08:34:24;;;;;;;2.80;2.10;;;23.40;33.90;;;;;;6149872;28;81922;-55
2023/04/03 08:37:24;;;;;;;3.88;2.30;;;23.40;34.10;;;;;;6143457;28;80613;-70
2023/04/03 08:40:25;;;;;;;4.97;2.80;;;23.40;34.10;;;;;;6148199;28;82388;-68
2023/04/03 08:43:25;;;;;;;3.05;1.75;;;23.30;34.00;;;;;;6147942;28;80452;-67
2023/04/03 08:46:26;;;;;;;3.60;2.40;;;23.40;34.20;;;;;;6137653;28;81515;-66
2023/04/03 08:49:27;;;;;;;3.33;1.63;;;23.30;34.70;;;;;;6140520;28;85212;-69
2023/04/03 08:52:27;;;;;;;3.20;2.20;;;23.30;34.90;;;;;;6147574;28;82064;-67
2023/04/03 08:55:28;;;;;;;2.80;1.75;;;23.30;34.90;;;;;;6147288;28;85487;-67
2023/04/03 08:58:29;;;;;;;2.47;1.90;;;23.30;35.00;;;;;;6153288;28;81457;-65
2023/04/03 09:01:29;;;;;;;4.20;2.08;;;23.40;35.10;;;;;;6151526;28;80470;-72
2023/04/03 09:04:30;;;;;;;4.90;3.25;;;23.30;35.30;;;;;;6148452;28;81575;-68
2023/04/03 09:07:31;;;;;;;4.22;2.70;;;23.40;35.90;;;;;;6152218;28;81863;-65
2023/04/03 09:10:32;;;;;;;26.17;22.10;;;23.40;35.70;;;;;;6148266;28;80928;-66
2023/04/03 09:13:32;;;;;;;26.15;21.13;;;23.50;36.00;;;;;;6144734;28;91290;-62
2023/04/03 09:16:33;;;;;;;24.90;18.75;;;23.50;36.10;;;;;;6149230;28;83719;-62
2023/04/03 09:19:33;;;;;;;28.77;20.77;;;23.60;35.90;;;;;;6150265;28;82952;-63
2023/04/03 09:22:34;;;;;;;17.10;11.00;;;23.70;35.80;;;;;;6141556;28;82942;-67
2023/04/03 09:25:35;;;;;;;8.57;6.63;;;23.60;35.60;;;;;;6146705;28;83249;-62
2023/04/03 09:28:36;;;;;;;7.35;5.03;;;23.60;35.40;;;;;;6150488;28;85281;-63
2023/04/03 09:31:36;;;;;;;7.47;4.10;;;23.60;35.50;;;;;;6124333;28;81239;-64
2023/04/03 09:34:37;;;;;;;9.10;3.78;;;23.50;35.60;;;;;;6124945;28;81850;-63
2023/04/03 09:37:38;;;;;;;4.40;2.90;;;23.50;35.50;;;;;;6126191;28;81122;-63
2023/04/03 09:40:38;;;;;;;4.20;2.92;;;23.50;35.50;;;;;;6125253;28;80695;-63
2023/04/03 09:43:39;;;;;;;5.43;3.10;;;23.50;35.50;;;;;;6123986;28;83530;-61
2023/04/03 09:46:40;;;;;;;4.78;2.97;;;23.50;35.60;;;;;;6128446;28;80851;-64
2023/04/03 09:49:40;;;;;;;3.33;2.40;;;23.50;35.40;;;;;;6113192;28;81479;-60
2023/04/03 09:52:41;;;;;;;3.60;2.30;;;23.50;35.50;;;;;;6120905;28;80728;-61
2023/04/03 09:55:41;;;;;;;5.00;2.30;;;23.50;35.60;;;;;;6130900;28;81055;-60
2023/04/03 09:58:42;;;;;;;5.10;2.35;;;23.40;35.50;;;;;;6122085;28;80748;-60
2023/04/03 10:01:43;;;;;;;5.18;2.40;;;23.40;35.60;;;;;;6127193;28;80475;-60
2023/04/03 10:04:43;;;;;;;4.70;2.40;;;23.40;35.70;;;;;;6125603;28;81049;-61
2023/04/03 10:07:44;;;;;;;2.72;2.17;;;23.40;35.70;;;;;;6125220;28;81149;-70
2023/04/03 10:10:45;;;;;;;3.72;2.25;;;23.30;35.70;;;;;;6110726;28;81172;-71
2023/04/03 10:13:45;;;;;;;3.05;1.90;;;23.30;35.60;;;;;;6127165;28;80647;-71
2023/04/03 10:16:46;;;;;;;2.75;2.00;;;23.30;35.60;;;;;;6126314;28;81356;-67
2023/04/03 10:19:46;;;;;;;3.72;1.90;;;23.20;35.60;;;;;;6111555;28;81655;-67
2023/04/03 10:22:47;;;;;;;3.78;2.20;;;23.20;35.50;;;;;;6118752;28;80417;-70
2023/04/03 10:25:49;;;;;;;3.15;2.00;;;23.20;35.50;;;;;;6128036;28;80795;-71
2023/04/03 10:28:49;;;;;;;3.45;2.13;;;23.10;35.60;;;;;;6128233;28;82017;-66
2023/04/03 10:31:50;;;;;;;4.60;2.38;;;23.10;35.60;;;;;;6149224;28;80359;-66
2023/04/03 10:34:50;;;;;;;2.50;1.70;;;23.00;35.30;;;;;;6149311;28;80907;-65
2023/04/03 10:37:51;;;;;;;5.35;2.45;;;23.00;35.20;;;;;;6151448;28;80982;-63
2023/04/03 10:40:52;;;;;;;4.45;1.95;;;23.00;35.20;;;;;;6147617;28;81078;-69
2023/04/03 10:43:53;;;;;;;2.50;1.70;;;23.00;35.20;;;;;;6153121;28;80682;-63
2023/04/03 10:46:53;;;;;;;3.53;2.05;;;22.90;35.20;;;;;;6150263;28;82109;-64
2023/04/03 10:49:54;;;;;;;3.47;2.00;;;22.90;35.00;;;;;;6131672;28;82210;-63
2023/04/03 10:52:55;;;;;;;3.50;1.55;;;22.90;35.00;;;;;;6149436;28;80566;-62
2023/04/03 10:55:55;;;;;;;3.88;1.45;;;22.90;35.10;;;;;;6147416;28;81077;-64
2023/04/03 10:58:57;;;;;;;5.78;2.38;;;22.90;35.30;;;;;;6120883;28;81681;-66
2023/04/03 11:01:58;;;;;;;2.92;1.85;;;22.90;36.10;;;;;;6151539;28;80498;-68
2023/04/03 11:04:58;;;;;;;4.00;2.08;;;23.00;36.00;;;;;;6148023;28;80288;-61
2023/04/03 11:07:59;;;;;;;2.42;1.92;;;23.00;35.90;;;;;;6143913;28;85569;-60
2023/04/03 11:11:00;;;;;;;4.32;2.00;;;23.00;36.20;;;;;;6143139;28;80052;-62
2023/04/03 11:14:00;;;;;;;4.38;1.65;;;23.00;36.40;;;;;;6151909;28;80486;-61
2023/04/03 11:17:01;;;;;;;2.95;1.80;;;23.00;36.20;;;;;;6136822;28;86452;-62
2023/04/03 11:20:01;;;;;;;4.82;2.10;;;23.00;36.10;;;;;;6150258;28;81647;-61
2023/04/03 11:23:03;;;;;;;3.75;2.00;;;23.00;35.90;;;;;;6127945;28;83817;-55
2023/04/03 11:26:03;;;;;;;5.85;2.15;;;23.00;35.80;;;;;;6148922;28;80930;-57
2023/04/03 11:29:04;;;;;;;2.92;2.00;;;23.00;35.70;;;;;;6147418;28;82983;-54
2023/04/03 11:32:04;;;;;;;5.10;2.53;;;23.00;35.60;;;;;;6098682;28;81942;-55
2023/04/03 11:35:05;;;;;;;4.93;2.17;;;23.00;35.70;;;;;;6116132;28;81876;-56
2023/04/03 11:38:06;;;;;;;5.95;2.50;;;23.10;35.50;;;;;;6125074;28;80503;-55
2023/04/03 11:41:06;;;;;;;5.20;2.72;;;23.10;35.40;;;;;;6125351;28;82337;-51
2023/04/03 11:44:08;;;;;;;3.30;2.15;;;23.10;35.40;;;;;;6124850;28;81005;-54
2023/04/03 11:47:09;;;;;;;4.30;2.28;;;23.10;35.40;;;;;;6119513;28;81767;-53
2023/04/03 11:50:09;;;;;;;3.78;1.92;;;23.00;35.20;;;;;;6107869;28;80393;-56
2023/04/03 11:53:10;;;;;;;3.38;1.92;;;23.00;35.20;;;;;;6126743;28;80583;-56
2023/04/03 11:56:10;;;;;;;4.65;2.08;;;23.00;35.30;;;;;;6125429;28;80141;-57
2023/04/03 11:59:15;;;;;;;4.55;1.85;;;23.00;35.20;;;;;;6126175;28;80912;-61
2023/04/03 12:02:15;;;;;;;3.88;2.00;;;23.00;35.10;;;;;;6124099;28;80699;-62
2023/04/03 12:05:16;;;;;;;5.55;2.13;;;23.10;35.10;;;;;;6127989;28;80410;-62
2023/04/03 12:08:17;;;;;;;3.95;2.60;;;23.10;35.20;;;;;;6128168;28;80583;-63
2023/04/03 12:11:17;;;;;;;7.40;2.60;;;23.10;35.60;;;;;;6128453;28;81122;-63
2023/04/03 12:14:18;;;;;;;4.57;2.22;;;23.10;35.90;;;;;;6125222;28;80197;-62
2023/04/03 12:17:19;;;;;;;4.72;2.00;;;23.10;36.00;;;;;;6119227;28;81377;-62
2023/04/03 12:20:20;;;;;;;4.25;2.05;;;23.10;36.20;;;;;;6125052;28;83928;-63
2023/04/03 12:23:20;;;;;;;5.07;2.33;;;23.10;36.20;;;;;;6124815;28;80301;-62
2023/04/03 12:26:21;;;;;;;3.90;2.15;;;23.10;36.10;;;;;;6123359;28;80730;-62
2023/04/03 12:29:22;;;;;;;4.65;2.83;;;23.10;36.10;;;;;;6116429;28;81277;-61
2023/04/03 12:32:22;;;;;;;4.22;2.28;;;22.80;33.40;;;;;;6124692;28;80351;-60
2023/04/03 12:35:23;;;;;;;5.22;2.33;;;22.60;33.10;;;;;;6109340;28;86544;-58
2023/04/03 12:38:25;;;;;;;4.03;2.45;;;22.40;32.30;;;;;;6118231;28;81114;-58
2023/04/03 12:41:25;;;;;;;4.43;2.22;;;22.10;32.30;;;;;;6120552;28;80821;-58
2023/04/03 12:44:26;;;;;;;5.78;2.33;;;21.90;31.70;;;;;;6120467;28;81574;-60
2023/04/03 12:47:26;;;;;;;3.67;2.42;;;21.80;31.60;;;;;;6121405;28;82131;-59
2023/04/03 12:50:27;;;;;;;4.10;2.28;;;21.60;31.60;;;;;;6119759;28;81415;-59
2023/04/03 12:53:27;;;;;;;3.97;2.38;;;21.50;31.40;;;;;;6105207;28;81611;-60
2023/04/03 12:56:28;;;;;;;2.63;1.85;;;21.50;31.30;;;;;;6121047;28;80714;-59
2023/04/03 12:59:29;;;;;;;6.25;3.00;;;21.30;31.30;;;;;;6094279;28;86459;-61
2023/04/03 13:02:29;;;;;;;5.47;2.20;;;21.20;31.40;;;;;;6116073;28;83296;-60
2023/04/03 13:05:30;;;;;;;3.67;2.28;;;21.00;31.50;;;;;;6123758;28;84322;-59
2023/04/03 13:08:31;;;;;;;4.35;2.10;;;20.90;31.60;;;;;;6121108;28;80678;-58
2023/04/03 13:11:31;;;;;;;7.93;2.20;;;20.90;32.30;;;;;;6113776;28;83401;-69
2023/04/03 13:14:33;;;;;;;10.70;2.58;;;21.10;33.50;;;;;;6096276;28;81631;-70
2023/04/03 13:17:33;;;;;;;6.53;2.50;;;21.40;33.50;;;;;;6114433;28;81708;-67
2023/04/03 13:20:35;;;;;;;3.30;1.70;;;21.60;33.70;;;;;;6107090;28;84218;-69
2023/04/03 13:23:35;;;;;;;4.28;1.98;;;21.70;34.00;;;;;;6090882;28;83526;-68
2023/04/03 13:26:36;;;;;;;8.32;1.67;;;21.90;34.10;;;;;;6122758;28;80405;-69
2023/04/03 13:29:37;;;;;;;4.40;2.42;;;22.00;34.20;;;;;;6117706;28;81445;-73
2023/04/03 13:32:37;;;;;;;3.45;1.95;;;22.10;34.10;;;;;;6123141;28;80679;-70
2023/04/03 13:35:38;;;;;;;4.82;1.90;;;22.20;34.40;;;;;;6120998;28;80871;-69
2023/04/03 13:38:39;;;;;;;2.92;1.67;;;22.30;34.80;;;;;;6123892;28;83419;-70
2023/04/03 13:41:39;;;;;;;3.55;1.80;;;22.40;34.80;;;;;;6128344;28;82424;-69
2023/04/03 13:44:40;;;;;;;12.23;2.00;;;22.40;35.50;;;;;;6128372;28;80436;-71
2023/04/03 13:47:41;;;;;;;10.63;2.13;;;22.40;35.70;;;;;;6128809;28;82051;-71
2023/04/03 13:50:41;;;;;;;6.20;2.35;;;22.50;35.80;;;;;;6129541;28;81105;-73
2023/04/03 13:53:42;;;;;;;4.07;1.98;;;22.60;35.70;;;;;;6121096;28;81010;-71
2023/04/03 13:56:42;;;;;;;24.38;3.00;;;22.60;37.40;;;;;;6126871;28;86031;-69
2023/04/03 13:59:43;;;;;;;5.03;2.00;;;22.60;37.70;;;;;;6125557;28;80619;-72
2023/04/03 14:02:45;;;;;;;5.28;1.80;;;22.60;37.50;;;;;;6126992;28;80612;-68
2023/04/03 14:05:45;;;;;;;6.22;1.75;;;22.70;37.30;;;;;;6101713;28;85739;-68
2023/04/03 14:08:46;;;;;;;5.78;2.17;;;22.70;36.90;;;;;;6102573;28;87343;-65
2023/04/03 14:11:47;;;;;;;3.08;1.80;;;22.70;36.70;;;;;;6105206;28;80890;-65
2023/04/03 14:14:47;;;;;;;4.38;1.70;;;22.70;36.80;;;;;;6103758;28;80571;-62
2023/04/03 14:17:48;;;;;;;7.60;1.80;;;22.80;36.70;;;;;;6091909;28;80621;-60
2023/04/03 14:20:49;;;;;;;6.70;1.80;;;22.80;36.80;;;;;;6075805;28;81066;-60
2023/04/03 14:23:50;;;;;;;5.65;2.03;;;22.80;37.30;;;;;;6109580;28;82468;-62
2023/04/03 14:26:50;;;;;;;2.95;1.90;;;22.80;37.00;;;;;;6098165;28;80498;-58
2023/04/03 14:29:51;;;;;;;6.95;2.13;;;22.80;37.00;;;;;;6099195;28;80326;-58
2023/04/03 14:32:51;;;;;;;4.70;1.75;;;22.90;36.60;;;;;;6100231;28;80979;-60
2023/04/03 14:35:52;;;;;;;4.60;1.92;;;23.00;36.40;;;;;;6102429;28;81558;-58
2023/04/03 14:38:52;;;;;;;4.47;2.10;;;23.00;36.40;;;;;;6095859;28;81723;-56
2023/04/03 14:41:53;;;;;;;3.05;1.60;;;23.10;36.10;;;;;;6105221;28;80793;-53
2023/04/03 14:44:53;;;;;;;5.20;1.90;;;23.10;35.70;;;;;;6105897;28;80840;-62
2023/04/03 14:47:54;;;;;;;6.38;2.22;;;23.20;35.40;;;;;;6100853;28;81646;-63
2023/04/03 14:50:55;;;;;;;4.57;1.80;;;23.20;35.10;;;;;;6099734;28;86745;-60
2023/04/03 14:53:55;;;;;;;4.72;2.20;;;23.20;34.80;;;;;;6104596;28;80454;-61
2023/04/03 14:56:56;;;;;;;4.43;2.35;;;23.20;34.80;;;;;;6105821;28;80520;-60
2023/04/03 14:59:56;;;;;;;3.65;1.80;;;23.20;34.70;;;;;;6105587;28;85613;-62
2023/04/03 15:02:57;;;;;;;2.80;1.83;;;23.30;34.60;;;;;;6103214;28;80852;-60
2023/04/03 15:05:59;;;;;;;2.15;1.63;;;23.30;34.50;;;;;;6097928;28;82797;-60
2023/04/03 15:08:59;;;;;;;2.60;1.83;;;23.30;34.30;;;;;;6104130;28;80138;-61
2023/04/03 15:12:00;;;;;;;3.80;1.83;;;23.30;34.30;;;;;;6101060;28;83400;-61
2023/04/03 15:15:00;;;;;;;3.45;1.90;;;23.30;34.10;;;;;;6102859;28;82431;-62
2023/04/03 15:18:01;;;;;;;3.20;1.85;;;23.30;34.00;;;;;;6105002;28;81577;-58
2023/04/03 15:21:02;;;;;;;2.63;1.58;;;23.40;34.00;;;;;;6122073;28;81682;-62
2023/04/03 15:24:02;;;;;;;2.83;1.52;;;23.30;33.80;;;;;;6125462;28;81888;-61
2023/04/03 15:27:03;;;;;;;6.43;2.00;;;23.40;34.10;;;;;;6126692;28;84095;-64
2023/04/03 15:30:03;;;;;;;3.88;2.00;;;23.40;34.10;;;;;;6120492;28;80278;-64
2023/04/03 15:33:04;;;;;;;3.97;2.20;;;23.40;34.10;;;;;;6128007;28;80121;-64
2023/04/03 15:36:04;;;;;;;3.63;2.17;;;23.40;34.20;;;;;;6126086;28;80304;-65
2023/04/03 15:39:05;;;;;;;2.85;1.50;;;23.40;34.00;;;;;;6123577;28;80564;-64